createdAt,value
2022-08-26T00:00:12.038Z,76.26
2022-08-26T00:00:46.405Z,76.15
2022-08-26T00:01:19.149Z,76.37
2022-08-26T00:02:01.487Z,76.48
2022-08-26T00:02:33.671Z,76.81
2022-08-26T00:03:05.714Z,76.46
2022-08-26T00:03:39.406Z,76.72
2022-08-26T00:04:12.334Z,76.38
2022-08-26T00:04:44.338Z,76.73
2022-08-26T00:05:16.593Z,76.57
2022-08-26T00:05:50.891Z,76.32
2022-08-26T00:06:23.253Z,76.47
2022-08-26T00:06:56.708Z,76.43
2022-08-26T00:07:28.640Z,76.50
2022-08-26T00:08:01.395Z,76.49
2022-08-26T00:08:33.701Z,76.79
2022-08-26T00:09:08.042Z,76.47
2022-08-26T00:09:40.559Z,76.55
2022-08-26T00:10:12.578Z,76.21
2022-08-26T00:10:44.664Z,75.76
2022-08-26T00:11:26.341Z,75.57
2022-08-26T00:11:59.313Z,75.81
2022-08-26T00:12:37.540Z,76.06
2022-08-26T00:13:11.103Z,76.51
2022-08-26T00:13:47.777Z,76.24
2022-08-26T00:14:22.880Z,75.90
2022-08-26T00:14:56.147Z,75.63
2022-08-26T00:15:28.176Z,75.52
2022-08-26T00:16:00.568Z,75.98
2022-08-26T00:16:32.600Z,76.24
2022-08-26T00:17:05.243Z,76.34
2022-08-26T00:17:41.237Z,76.60
2022-08-26T00:18:22.420Z,76.90
2022-08-26T00:18:54.589Z,76.59
2022-08-26T00:19:26.607Z,76.95
2022-08-26T00:19:58.535Z,76.98
2022-08-26T00:20:32.801Z,77.19
2022-08-26T00:21:06.961Z,76.82
2022-08-26T00:21:38.901Z,76.56
2022-08-26T00:22:11.147Z,76.37
2022-08-26T00:22:43.741Z,76.36
2022-08-26T00:23:15.674Z,76.16
2022-08-26T00:23:48.456Z,76.20
2022-08-26T00:24:21.789Z,76.10
2022-08-26T00:24:54.584Z,76.14
2022-08-26T00:25:27.265Z,76.26
2022-08-26T00:25:59.331Z,75.82
2022-08-26T00:26:34.936Z,76.00
2022-08-26T00:27:06.963Z,76.28
2022-08-26T00:27:40.471Z,76.72
2022-08-26T00:28:13.134Z,76.38
2022-08-26T00:28:46.052Z,76.34
2022-08-26T00:29:18.445Z,76.44
2022-08-26T00:29:50.579Z,76.43
2022-08-26T00:30:26.707Z,76.76
2022-08-26T00:30:58.625Z,77.09
2022-08-26T00:31:31.421Z,76.73
2022-08-26T00:32:03.969Z,76.57
2022-08-26T00:32:36.198Z,76.49
2022-08-26T00:33:09.877Z,76.45
2022-08-26T00:33:43.165Z,76.85
2022-08-26T00:34:19.225Z,77.20
2022-08-26T00:34:51.550Z,77.12
2022-08-26T00:35:25.318Z,76.62
2022-08-26T00:36:01.717Z,76.14
2022-08-26T00:36:34.469Z,76.19
2022-08-26T00:37:09.838Z,76.49
2022-08-26T00:37:43.407Z,76.75
2022-08-26T00:38:15.974Z,77.10
2022-08-26T00:38:48.145Z,77.06
2022-08-26T00:39:20.950Z,76.97
2022-08-26T00:39:52.958Z,76.83
2022-08-26T00:40:33.327Z,76.71
2022-08-26T00:41:06.217Z,76.67
2022-08-26T00:41:40.806Z,76.54
2022-08-26T00:42:13.047Z,76.72
2022-08-26T00:42:45.970Z,77.09
2022-08-26T00:43:19.492Z,77.46
2022-08-26T00:43:51.967Z,77.97
2022-08-26T00:44:24.795Z,77.72
2022-08-26T00:44:57.730Z,77.43
2022-08-26T00:45:39.694Z,77.37
2022-08-26T00:46:19.795Z,77.17
2022-08-26T00:46:59.975Z,76.87
2022-08-26T00:47:34.382Z,76.95
2022-08-26T00:48:07.866Z,76.81
2022-08-26T00:48:44.008Z,77.26
2022-08-26T00:49:44.375Z,77.29
2022-08-26T00:50:23.154Z,77.37
2022-08-26T00:50:58.646Z,77.75
2022-08-26T00:51:31.681Z,78.11
2022-08-26T00:52:06.979Z,77.74
2022-08-26T00:52:42.933Z,77.40
2022-08-26T00:53:23.859Z,77.48
2022-08-26T00:54:03.903Z,77.60
2022-08-26T00:54:45.219Z,77.26
2022-08-26T00:55:27.520Z,77.30
2022-08-26T00:56:17.790Z,76.82
2022-08-26T00:57:00.112Z,77.04
2022-08-26T00:57:34.338Z,76.93
2022-08-26T00:58:07.474Z,76.58
2022-08-26T00:58:43.085Z,76.38
2022-08-26T00:59:17.919Z,76.71
2022-08-26T00:59:56.875Z,77.19
2022-08-26T01:00:31.223Z,77.18
2022-08-26T01:01:03.522Z,77.30
2022-08-26T01:01:38.104Z,77.24
2022-08-26T01:02:20.881Z,77.15
2022-08-26T01:02:56.039Z,76.80
2022-08-26T01:03:31.290Z,76.87
2022-08-26T01:04:03.437Z,76.73
2022-08-26T01:04:38.560Z,76.70
2022-08-26T01:05:11.707Z,76.59
2022-08-26T01:05:44.124Z,76.71
2022-08-26T01:06:16.304Z,76.88
2022-08-26T01:06:52.553Z,77.08
2022-08-26T01:07:30.305Z,77.29
2022-08-26T01:08:03.748Z,77.19
2022-08-26T01:08:35.955Z,77.31
2022-08-26T01:09:08.264Z,77.34
2022-08-26T01:09:40.755Z,77.37
2022-08-26T01:10:17.306Z,77.39
2022-08-26T01:10:49.329Z,77.42
2022-08-26T01:11:23.228Z,77.13
2022-08-26T01:11:59.226Z,77.33
2022-08-26T01:12:36.755Z,77.11
2022-08-26T01:13:12.453Z,76.94
2022-08-26T01:13:44.460Z,76.85
2022-08-26T01:14:20.115Z,77.13
2022-08-26T01:14:52.596Z,77.11
2022-08-26T01:15:35.652Z,76.96
2022-08-26T01:16:11.878Z,76.98
2022-08-26T01:16:44.342Z,77.11
2022-08-26T01:17:17.278Z,77.22
2022-08-26T01:17:49.835Z,76.93
2022-08-26T01:18:22.390Z,77.01
2022-08-26T01:19:09.759Z,77.06
2022-08-26T01:19:44.883Z,77.24
2022-08-26T01:20:46.111Z,77.00
2022-08-26T01:21:40.582Z,77.26
2022-08-26T01:22:26.621Z,77.47
2022-08-26T01:23:05.207Z,77.70
2022-08-26T01:23:48.037Z,77.56
2022-08-26T01:24:20.045Z,77.68
2022-08-26T01:24:52.166Z,77.92
2022-08-26T01:25:29.524Z,78.02
2022-08-26T01:26:08.811Z,77.96
2022-08-26T01:26:52.881Z,77.67
2022-08-26T01:27:25.352Z,77.54
2022-08-26T01:28:00.006Z,77.54
2022-08-26T01:28:34.083Z,77.36
2022-08-26T01:29:12.791Z,77.55
2022-08-26T01:29:47.212Z,77.41
2022-08-26T01:30:21.375Z,77.21
2022-08-26T01:30:56.838Z,77.65
2022-08-26T01:31:35.567Z,78.05
2022-08-26T01:32:11.736Z,78.30
2022-08-26T01:32:44.706Z,78.40
2022-08-26T01:33:21.027Z,78.37
2022-08-26T01:34:00.413Z,78.50
2022-08-26T01:34:37.614Z,78.42
2022-08-26T01:35:09.949Z,78.34
2022-08-26T01:35:42.960Z,78.17
2022-08-26T01:36:15.322Z,78.00
2022-08-26T01:36:54.448Z,78.11
2022-08-26T01:37:33.196Z,78.17
2022-08-26T01:38:05.265Z,77.85
2022-08-26T01:38:37.277Z,77.76
2022-08-26T01:39:10.085Z,77.94
2022-08-26T01:39:44.945Z,77.89
2022-08-26T01:40:24.180Z,77.61
2022-08-26T01:40:56.684Z,77.53
2022-08-26T01:41:30.163Z,77.46
2022-08-26T01:42:05.292Z,77.51
2022-08-26T01:42:43.681Z,77.58
2022-08-26T01:43:21.927Z,77.61
2022-08-26T01:43:55.799Z,77.51
2022-08-26T01:44:32.519Z,77.33
2022-08-26T01:45:14.515Z,77.67
2022-08-26T01:45:48.236Z,77.84
2022-08-26T01:46:23.261Z,78.20
2022-08-26T01:46:57.418Z,78.42
2022-08-26T01:47:32.039Z,78.42
2022-08-26T01:48:09.045Z,78.20
2022-08-26T01:48:43.856Z,78.10
2022-08-26T01:49:16.615Z,78.52
2022-08-26T01:49:53.712Z,78.39
2022-08-26T01:50:33.055Z,78.27
2022-08-26T01:51:07.825Z,78.16
2022-08-26T01:51:40.992Z,78.07
2022-08-26T01:52:20.684Z,78.34
2022-08-26T01:52:54.949Z,79.04
2022-08-26T01:53:27.219Z,78.85
2022-08-26T01:54:00.982Z,78.52
2022-08-26T01:54:35.406Z,78.61
2022-08-26T01:55:09.061Z,78.43
2022-08-26T01:55:44.498Z,78.23
2022-08-26T01:56:16.891Z,78.69
2022-08-26T01:56:49.416Z,79.01
2022-08-26T01:57:23.407Z,78.76
2022-08-26T01:57:57.435Z,78.68
2022-08-26T01:58:42.777Z,78.74
2022-08-26T01:59:17.041Z,79.05
2022-08-26T01:59:50.799Z,78.86
2022-08-26T02:00:24.589Z,78.67
2022-08-26T02:00:57.325Z,78.56
2022-08-26T02:01:29.701Z,79.18
2022-08-26T02:02:02.954Z,79.18
2022-08-26T02:02:35.016Z,79.25
2022-08-26T02:03:17.254Z,79.49
2022-08-26T02:03:58.625Z,79.03
2022-08-26T02:04:34.499Z,79.21
2022-08-26T02:05:11.292Z,79.41
2022-08-26T02:05:45.787Z,79.05
2022-08-26T02:06:21.310Z,78.89
2022-08-26T02:06:53.782Z,79.30
2022-08-26T02:07:27.172Z,79.26
2022-08-26T02:07:59.090Z,79.02
2022-08-26T02:08:38.591Z,78.89
2022-08-26T02:09:11.920Z,78.89
2022-08-26T02:09:43.909Z,78.97
2022-08-26T02:10:15.958Z,79.03
2022-08-26T02:10:48.640Z,78.68
2022-08-26T02:11:21.203Z,78.53
2022-08-26T02:11:53.289Z,78.60
2022-08-26T02:12:27.295Z,78.79
2022-08-26T02:12:59.512Z,78.78
2022-08-26T02:13:34.810Z,78.85
2022-08-26T02:14:14.019Z,78.67
2022-08-26T02:14:53.696Z,79.05
2022-08-26T02:15:26.088Z,79.31
2022-08-26T02:16:00.859Z,79.22
2022-08-26T02:16:40.045Z,79.20
2022-08-26T02:17:15.643Z,79.02
2022-08-26T02:17:48.643Z,79.37
2022-08-26T02:18:26.437Z,79.48
2022-08-26T02:19:01.611Z,79.12
2022-08-26T02:19:40.865Z,79.17
2022-08-26T02:20:15.865Z,78.99
2022-08-26T02:20:51.577Z,78.96
2022-08-26T02:21:24.960Z,79.01
2022-08-26T02:22:03.551Z,79.43
2022-08-26T02:22:36.170Z,79.36
2022-08-26T02:23:08.846Z,79.41
2022-08-26T02:23:41.083Z,79.16
2022-08-26T02:24:16.622Z,78.92
2022-08-26T02:24:51.288Z,79.06
2022-08-26T02:25:27.987Z,78.99
2022-08-26T02:26:21.857Z,79.53
2022-08-26T02:26:54.942Z,79.24
2022-08-26T02:27:32.502Z,79.03
2022-08-26T02:28:04.806Z,78.93
2022-08-26T02:28:52.879Z,79.12
2022-08-26T02:29:34.576Z,79.00
2022-08-26T02:30:17.545Z,79.39
2022-08-26T02:30:49.657Z,80.00
2022-08-26T02:31:23.085Z,79.63
2022-08-26T02:31:57.956Z,79.40
2022-08-26T02:32:30.502Z,79.12
2022-08-26T02:33:07.038Z,78.81
2022-08-26T02:33:43.050Z,79.22
2022-08-26T02:34:21.158Z,79.63
2022-08-26T02:34:53.087Z,80.05
2022-08-26T02:35:25.503Z,79.71
2022-08-26T02:35:57.451Z,79.25
2022-08-26T02:36:29.388Z,78.95
2022-08-26T02:37:06.162Z,78.75
2022-08-26T02:37:38.779Z,79.54
2022-08-26T02:38:13.895Z,80.07
2022-08-26T02:38:46.266Z,80.54
2022-08-26T02:39:22.014Z,80.41
2022-08-26T02:39:54.409Z,79.92
2022-08-26T02:40:33.750Z,79.46
2022-08-26T02:41:08.076Z,79.22
2022-08-26T02:41:45.290Z,79.21
2022-08-26T02:42:17.342Z,79.40
2022-08-26T02:42:49.687Z,79.24
2022-08-26T02:43:32.665Z,79.22
2022-08-26T02:44:07.224Z,78.85
2022-08-26T02:44:39.613Z,79.37
2022-08-26T02:45:11.905Z,79.87
2022-08-26T02:45:44.349Z,79.87
2022-08-26T02:46:21.491Z,79.65
2022-08-26T02:47:02.371Z,79.20
2022-08-26T02:47:34.642Z,79.15
2022-08-26T02:48:15.638Z,79.26
2022-08-26T02:48:47.570Z,78.94
2022-08-26T02:49:19.874Z,78.72
2022-08-26T02:49:52.384Z,79.08
2022-08-26T02:50:25.771Z,78.92
2022-08-26T02:50:59.970Z,78.63
2022-08-26T02:51:32.054Z,78.19
2022-08-26T02:52:05.330Z,78.11
2022-08-26T02:52:37.687Z,78.10
2022-08-26T02:53:10.520Z,78.20
2022-08-26T02:53:42.803Z,78.17
2022-08-26T02:54:15.295Z,78.25
2022-08-26T02:54:47.670Z,78.13
2022-08-26T02:55:21.627Z,77.94
2022-08-26T02:55:56.653Z,78.05
2022-08-26T02:56:29.396Z,78.09
2022-08-26T02:57:02.996Z,78.38
2022-08-26T02:57:35.393Z,78.35
2022-08-26T02:58:07.350Z,78.14
2022-08-26T02:58:39.658Z,78.28
2022-08-26T02:59:15.492Z,78.26
2022-08-26T02:59:47.747Z,78.25
2022-08-26T03:00:19.862Z,78.45
2022-08-26T03:00:53.470Z,78.21
2022-08-26T03:01:32.450Z,78.16
2022-08-26T03:02:04.814Z,78.22
2022-08-26T03:02:36.952Z,78.40
2022-08-26T03:03:09.299Z,78.26
2022-08-26T03:03:41.361Z,78.21
2022-08-26T03:04:13.941Z,78.25
2022-08-26T03:04:58.022Z,77.76
2022-08-26T03:05:34.874Z,77.71
2022-08-26T03:06:07.000Z,77.72
2022-08-26T03:06:41.618Z,77.99
2022-08-26T03:07:13.581Z,78.43
2022-08-26T03:07:46.474Z,78.56
2022-08-26T03:08:18.674Z,78.39
2022-08-26T03:08:51.701Z,78.33
2022-08-26T03:09:24.495Z,78.29
2022-08-26T03:09:58.071Z,78.45
2022-08-26T03:10:32.221Z,78.53
2022-08-26T03:11:05.175Z,78.53
2022-08-26T03:11:39.092Z,78.18
2022-08-26T03:12:11.812Z,79.03
2022-08-26T03:12:47.438Z,78.89
2022-08-26T03:13:20.123Z,78.53
2022-08-26T03:13:52.660Z,78.64
2022-08-26T03:14:25.658Z,78.79
2022-08-26T03:14:58.917Z,78.78
2022-08-26T03:15:32.269Z,78.65
2022-08-26T03:16:05.049Z,78.64
2022-08-26T03:16:37.652Z,78.20
2022-08-26T03:17:09.672Z,78.37
2022-08-26T03:17:42.675Z,78.34
2022-08-26T03:18:16.083Z,78.35
2022-08-26T03:18:52.284Z,78.42
2022-08-26T03:19:25.431Z,78.43
2022-08-26T03:19:58.579Z,78.61
2022-08-26T03:20:30.609Z,78.92
2022-08-26T03:21:15.194Z,78.73
2022-08-26T03:21:47.727Z,78.39
2022-08-26T03:22:19.626Z,78.45
2022-08-26T03:22:53.409Z,78.48
2022-08-26T03:23:28.101Z,78.31
2022-08-26T03:24:00.650Z,78.85
2022-08-26T03:24:32.695Z,79.01
2022-08-26T03:25:08.107Z,78.79
2022-08-26T03:25:40.182Z,79.08
2022-08-26T03:26:14.034Z,79.23
2022-08-26T03:26:52.354Z,79.00
2022-08-26T03:27:25.022Z,78.92
2022-08-26T03:27:56.963Z,78.82
2022-08-26T03:28:31.914Z,79.12
2022-08-26T03:29:23.292Z,78.90
2022-08-26T03:30:14.338Z,78.77
2022-08-26T03:30:48.148Z,79.05
2022-08-26T03:31:20.894Z,79.46
2022-08-26T03:31:57.178Z,79.36
2022-08-26T03:32:30.153Z,79.49
2022-08-26T03:33:02.447Z,79.73
2022-08-26T03:33:34.411Z,79.65
2022-08-26T03:34:06.329Z,79.96
2022-08-26T03:34:38.697Z,79.80
2022-08-26T03:35:11.542Z,79.52
2022-08-26T03:35:47.088Z,79.92
2022-08-26T03:36:19.326Z,79.94
2022-08-26T03:36:51.322Z,79.95
2022-08-26T03:37:23.405Z,79.69
2022-08-26T03:37:55.521Z,79.85
2022-08-26T03:38:27.407Z,80.43
2022-08-26T03:38:59.439Z,80.57
2022-08-26T03:39:31.874Z,80.38
2022-08-26T03:40:05.864Z,80.21
2022-08-26T03:40:38.799Z,80.37
2022-08-26T03:41:12.304Z,80.01
2022-08-26T03:41:47.939Z,79.96
2022-08-26T03:42:21.530Z,80.08
2022-08-26T03:42:53.604Z,79.86
2022-08-26T03:43:27.753Z,80.02
2022-08-26T03:44:01.747Z,80.15
2022-08-26T03:44:33.872Z,80.11
2022-08-26T03:45:08.446Z,80.08
2022-08-26T03:45:41.140Z,80.08
2022-08-26T03:46:14.641Z,80.20
2022-08-26T03:46:47.160Z,79.99
2022-08-26T03:47:20.501Z,80.15
2022-08-26T03:47:52.431Z,80.20
2022-08-26T03:48:25.042Z,80.18
2022-08-26T03:48:57.842Z,80.22
2022-08-26T03:49:31.815Z,79.79
2022-08-26T03:50:05.511Z,79.75
2022-08-26T03:50:38.164Z,79.79
2022-08-26T03:51:19.106Z,79.64
2022-08-26T03:51:51.572Z,79.67
2022-08-26T03:52:23.806Z,79.60
2022-08-26T03:52:56.318Z,79.67
2022-08-26T03:53:28.495Z,79.53
2022-08-26T03:54:02.894Z,79.51
2022-08-26T03:54:34.783Z,79.80
2022-08-26T03:55:07.669Z,79.94
2022-08-26T03:55:39.733Z,79.99
2022-08-26T03:56:11.784Z,80.03
2022-08-26T03:56:43.701Z,79.75
2022-08-26T03:57:18.886Z,79.76
2022-08-26T03:57:52.343Z,80.03
2022-08-26T03:58:25.342Z,80.16
2022-08-26T03:58:57.295Z,80.59
2022-08-26T03:59:29.377Z,80.50
2022-08-26T04:00:01.355Z,80.53
2022-08-26T04:00:41.028Z,80.42
2022-08-26T04:01:16.238Z,80.28
2022-08-26T04:01:48.411Z,80.41
2022-08-26T04:02:20.441Z,80.26
2022-08-26T04:02:53.401Z,80.27
2022-08-26T04:03:45.961Z,80.69
2022-08-26T04:04:18.312Z,80.64
2022-08-26T04:04:54.896Z,80.46
2022-08-26T04:05:26.956Z,80.44
2022-08-26T04:06:00.261Z,80.22
2022-08-26T04:06:35.498Z,80.10
2022-08-26T04:07:07.726Z,80.10
2022-08-26T04:07:41.327Z,80.13
2022-08-26T04:08:13.286Z,80.02
2022-08-26T04:08:45.300Z,80.10
2022-08-26T04:09:21.084Z,79.92
2022-08-26T04:09:57.681Z,79.87
2022-08-26T04:10:29.690Z,79.86
2022-08-26T04:11:01.873Z,79.67
2022-08-26T04:11:39.323Z,79.65
2022-08-26T04:12:11.996Z,79.58
2022-08-26T04:12:44.881Z,79.70
2022-08-26T04:13:17.041Z,80.17
2022-08-26T04:13:49.464Z,80.23
2022-08-26T04:14:23.909Z,80.11
2022-08-26T04:14:57.110Z,80.13
2022-08-26T04:15:29.789Z,80.05
2022-08-26T04:16:01.761Z,80.16
2022-08-26T04:16:34.249Z,79.91
2022-08-26T04:17:07.387Z,79.85
2022-08-26T04:17:39.631Z,80.00
2022-08-26T04:18:11.630Z,80.07
2022-08-26T04:18:46.799Z,79.99
2022-08-26T04:19:20.101Z,79.88
2022-08-26T04:19:55.337Z,79.70
2022-08-26T04:20:27.390Z,79.45
2022-08-26T04:21:00.071Z,79.38
2022-08-26T04:21:32.041Z,79.00
2022-08-26T04:22:03.993Z,79.02
2022-08-26T04:22:36.507Z,79.22
2022-08-26T04:23:08.665Z,79.36
2022-08-26T04:23:47.844Z,79.19
2022-08-26T04:24:22.342Z,79.20
2022-08-26T04:24:54.268Z,79.09
2022-08-26T04:25:27.896Z,79.36
2022-08-26T04:26:01.455Z,79.75
2022-08-26T04:26:39.407Z,79.70
2022-08-26T04:27:14.690Z,79.44
2022-08-26T04:27:48.921Z,79.36
2022-08-26T04:28:22.890Z,79.39
2022-08-26T04:28:55.215Z,79.22
2022-08-26T04:29:27.156Z,79.52
2022-08-26T04:29:59.129Z,79.69
2022-08-26T04:30:31.241Z,79.98
2022-08-26T04:31:03.566Z,80.10
2022-08-26T04:31:37.071Z,79.76
2022-08-26T04:32:09.388Z,79.57
2022-08-26T04:32:41.903Z,79.43
2022-08-26T04:33:14.283Z,79.10
2022-08-26T04:33:49.576Z,79.42
2022-08-26T04:34:27.258Z,79.48
2022-08-26T04:35:00.982Z,79.65
2022-08-26T04:35:35.240Z,79.65
2022-08-26T04:36:07.787Z,79.21
2022-08-26T04:36:41.000Z,79.29
2022-08-26T04:37:13.908Z,79.16
2022-08-26T04:37:45.836Z,79.11
2022-08-26T04:38:19.966Z,79.09
2022-08-26T04:38:52.277Z,79.08
2022-08-26T04:39:27.680Z,79.17
2022-08-26T04:39:59.938Z,79.31
2022-08-26T04:40:32.233Z,79.33
2022-08-26T04:41:07.391Z,79.47
2022-08-26T04:41:49.164Z,79.10
2022-08-26T04:42:23.271Z,79.18
2022-08-26T04:42:58.227Z,79.35
2022-08-26T04:43:31.281Z,79.03
2022-08-26T04:44:03.713Z,78.80
2022-08-26T04:44:37.015Z,78.65
2022-08-26T04:45:10.162Z,78.75
2022-08-26T04:45:43.624Z,78.89
2022-08-26T04:46:19.539Z,78.95
2022-08-26T04:46:52.672Z,78.79
2022-08-26T04:47:28.109Z,78.83
2022-08-26T04:48:03.915Z,79.10
2022-08-26T04:48:36.754Z,79.70
2022-08-26T04:49:09.213Z,79.73
2022-08-26T04:49:41.183Z,79.47
2022-08-26T04:50:13.852Z,79.19
2022-08-26T04:50:49.528Z,78.90
2022-08-26T04:51:28.106Z,78.65
2022-08-26T04:52:00.237Z,78.61
2022-08-26T04:52:32.287Z,78.74
2022-08-26T04:53:04.524Z,79.00
2022-08-26T04:53:39.465Z,78.72
2022-08-26T04:54:12.403Z,78.57
2022-08-26T04:54:44.313Z,78.41
2022-08-26T04:55:16.339Z,78.20
2022-08-26T04:55:48.508Z,78.22
2022-08-26T04:56:20.582Z,78.71
2022-08-26T04:56:53.150Z,78.59
2022-08-26T04:57:25.215Z,78.69
2022-08-26T04:57:57.818Z,78.79
2022-08-26T04:58:29.772Z,78.66
2022-08-26T04:59:04.426Z,78.43
2022-08-26T04:59:39.983Z,78.43
2022-08-26T05:00:13.857Z,78.21
2022-08-26T05:00:49.616Z,78.38
2022-08-26T05:01:22.866Z,78.12
2022-08-26T05:01:57.365Z,77.51
2022-08-26T05:02:31.510Z,77.43
2022-08-26T05:03:03.656Z,77.63
2022-08-26T05:03:36.378Z,77.66
2022-08-26T05:04:08.743Z,77.50
2022-08-26T05:04:43.515Z,77.32
2022-08-26T05:05:15.455Z,77.37
2022-08-26T05:05:50.914Z,77.24
2022-08-26T05:06:22.879Z,76.98
2022-08-26T05:07:02.203Z,76.53
2022-08-26T05:07:35.372Z,76.17
2022-08-26T05:08:07.673Z,76.41
2022-08-26T05:08:41.134Z,76.75
2022-08-26T05:09:14.488Z,76.68
2022-08-26T05:09:47.310Z,76.04
2022-08-26T05:10:19.548Z,75.85
2022-08-26T05:10:57.677Z,75.59
2022-08-26T05:11:29.720Z,75.60
2022-08-26T05:12:01.672Z,75.78
2022-08-26T05:12:35.141Z,76.45
2022-08-26T05:13:11.098Z,76.93
2022-08-26T05:13:43.980Z,76.68
2022-08-26T05:14:16.639Z,76.47
2022-08-26T05:14:48.621Z,76.36
2022-08-26T05:15:20.504Z,76.22
2022-08-26T05:15:52.665Z,76.04
2022-08-26T05:16:24.920Z,76.34
2022-08-26T05:16:56.868Z,76.43
2022-08-26T05:17:29.120Z,75.90
2022-08-26T05:18:01.155Z,75.58
2022-08-26T05:18:34.164Z,75.47
2022-08-26T05:19:08.553Z,75.72
2022-08-26T05:19:42.992Z,76.41
2022-08-26T05:20:15.018Z,76.37
2022-08-26T05:20:53.896Z,76.22
2022-08-26T05:21:29.161Z,75.64
2022-08-26T05:22:01.172Z,75.32
2022-08-26T05:22:33.086Z,74.79
2022-08-26T05:23:04.985Z,74.20
2022-08-26T05:23:38.596Z,74.04
2022-08-26T05:24:13.328Z,73.83
2022-08-26T05:24:46.519Z,73.69
2022-08-26T05:25:18.578Z,74.00
2022-08-26T05:25:57.071Z,73.89
2022-08-26T05:26:31.533Z,73.95
2022-08-26T05:27:03.898Z,74.03
2022-08-26T05:27:43.533Z,74.23
2022-08-26T05:28:18.105Z,74.43
2022-08-26T05:28:50.682Z,74.27
2022-08-26T05:29:26.578Z,74.26
2022-08-26T05:29:59.023Z,74.29
2022-08-26T05:30:31.518Z,74.03
2022-08-26T05:31:16.038Z,73.55
2022-08-26T05:31:52.719Z,73.56
2022-08-26T05:32:24.754Z,73.26
2022-08-26T05:32:56.733Z,73.14
2022-08-26T05:33:29.420Z,72.93
2022-08-26T05:34:03.965Z,72.92
2022-08-26T05:34:37.523Z,72.85
2022-08-26T05:35:10.903Z,72.92
2022-08-26T05:35:44.723Z,72.71
2022-08-26T05:36:20.341Z,72.69
2022-08-26T05:36:54.174Z,72.85
2022-08-26T05:37:26.586Z,72.59
2022-08-26T05:38:00.570Z,72.42
2022-08-26T05:38:32.472Z,72.29
2022-08-26T05:39:06.780Z,72.22
2022-08-26T05:39:38.768Z,72.16
2022-08-26T05:40:15.799Z,72.39
2022-08-26T05:40:52.596Z,72.49
2022-08-26T05:41:34.295Z,72.29
2022-08-26T05:42:08.449Z,72.07
2022-08-26T05:42:41.466Z,71.64
2022-08-26T05:43:14.279Z,70.75
2022-08-26T05:43:46.360Z,70.32
2022-08-26T05:44:21.022Z,70.04
2022-08-26T05:44:56.216Z,69.87
2022-08-26T05:45:28.597Z,70.12
2022-08-26T05:46:06.657Z,70.43
2022-08-26T05:46:40.261Z,69.98
2022-08-26T05:47:12.420Z,69.90
2022-08-26T05:47:44.349Z,69.54
2022-08-26T05:48:22.625Z,69.22
2022-08-26T05:48:57.164Z,68.61
2022-08-26T05:49:29.074Z,69.13
2022-08-26T05:50:05.233Z,69.07
2022-08-26T05:50:43.124Z,68.63
2022-08-26T05:51:15.578Z,67.69
2022-08-26T05:51:48.109Z,67.62
2022-08-26T05:52:20.428Z,67.88
2022-08-26T05:52:52.370Z,68.22
2022-08-26T05:53:26.024Z,68.08
2022-08-26T05:53:58.914Z,67.42
2022-08-26T05:54:30.832Z,66.97
2022-08-26T05:55:02.710Z,66.65
2022-08-26T05:55:34.831Z,66.90
2022-08-26T05:56:09.406Z,66.38
2022-08-26T05:56:41.848Z,66.17
2022-08-26T05:57:15.984Z,66.07
2022-08-26T05:57:50.457Z,65.72
2022-08-26T05:58:23.185Z,65.12
2022-08-26T05:58:56.375Z,64.57
2022-08-26T05:59:30.717Z,64.58
2022-08-26T06:00:05.565Z,64.41
2022-08-26T06:00:45.229Z,64.17
2022-08-26T06:01:20.436Z,63.64
2022-08-26T06:01:55.081Z,63.89
2022-08-26T06:02:27.272Z,64.27
2022-08-26T06:02:59.288Z,64.04
2022-08-26T06:03:33.980Z,64.18
2022-08-26T06:04:07.960Z,64.21
2022-08-26T06:04:39.890Z,63.79
2022-08-26T06:05:11.829Z,63.92
2022-08-26T06:05:44.085Z,64.52
2022-08-26T06:06:20.256Z,64.18
2022-08-26T06:06:59.634Z,63.20
2022-08-26T06:07:50.217Z,62.62
2022-08-26T06:08:22.493Z,61.85
2022-08-26T06:08:55.339Z,62.01
2022-08-26T06:09:27.409Z,61.87
2022-08-26T06:10:21.666Z,61.87
2022-08-26T06:10:54.792Z,61.95
2022-08-26T06:11:28.270Z,61.50
2022-08-26T06:12:01.865Z,61.43
2022-08-26T06:12:34.221Z,60.84
2022-08-26T06:13:09.283Z,60.51
2022-08-26T06:13:44.727Z,60.39
2022-08-26T06:14:17.837Z,59.94
2022-08-26T06:14:51.225Z,59.25
2022-08-26T06:15:23.614Z,59.19
2022-08-26T06:15:56.925Z,60.86
2022-08-26T06:16:31.588Z,61.30
2022-08-26T06:17:04.303Z,61.12
2022-08-26T06:17:36.201Z,60.66
2022-08-26T06:18:08.461Z,60.54
2022-08-26T06:18:44.240Z,55.66
2022-08-26T06:19:16.275Z,55.55
2022-08-26T06:19:48.712Z,55.39
2022-08-26T06:20:20.736Z,55.76
2022-08-26T06:20:58.012Z,54.71
2022-08-26T06:21:33.434Z,47.62
2022-08-26T06:22:25.579Z,47.10
2022-08-26T06:23:16.551Z,47.51
2022-08-26T06:24:09.506Z,47.19
2022-08-26T06:24:59.897Z,47.23
2022-08-26T06:25:38.106Z,45.98
2022-08-26T06:26:10.938Z,46.46
2022-08-26T06:26:50.507Z,46.82
2022-08-26T06:27:23.208Z,45.77
2022-08-26T06:27:55.572Z,45.58
2022-08-26T06:28:27.949Z,44.58
2022-08-26T06:29:00.689Z,43.87
2022-08-26T06:29:37.571Z,44.01
2022-08-26T06:30:10.485Z,44.53
2022-08-26T06:30:42.719Z,43.84
2022-08-26T06:31:15.799Z,43.12
2022-08-26T06:31:48.359Z,43.15
2022-08-26T06:32:20.277Z,43.48
2022-08-26T06:32:52.502Z,43.31
2022-08-26T06:33:27.965Z,43.25
2022-08-26T06:34:00.390Z,43.36
2022-08-26T06:34:33.873Z,43.83
2022-08-26T06:35:06.477Z,42.94
2022-08-26T06:35:45.669Z,43.17
2022-08-26T06:36:23.500Z,42.41
2022-08-26T06:36:57.850Z,42.69
2022-08-26T06:37:29.763Z,42.46
2022-08-26T06:38:02.629Z,42.78
2022-08-26T06:38:35.406Z,42.85
2022-08-26T06:39:11.167Z,43.19
2022-08-26T06:39:43.630Z,43.46
2022-08-26T06:40:15.638Z,43.46
2022-08-26T06:40:50.582Z,42.82
2022-08-26T06:41:23.320Z,43.16
2022-08-26T06:41:56.117Z,42.83
2022-08-26T06:42:29.733Z,43.19
2022-08-26T06:43:03.514Z,43.25
2022-08-26T06:43:35.509Z,43.42
2022-08-26T06:44:08.021Z,43.10
2022-08-26T06:44:41.014Z,43.05
2022-08-26T06:45:13.068Z,43.43
2022-08-26T06:45:48.883Z,43.38
2022-08-26T06:46:22.122Z,43.27
2022-08-26T06:46:54.688Z,42.99
2022-08-26T06:47:26.638Z,43.21
2022-08-26T06:48:01.441Z,41.73
2022-08-26T06:48:33.512Z,42.44
2022-08-26T06:49:05.608Z,42.57
2022-08-26T06:49:37.605Z,42.07
2022-08-26T06:50:09.652Z,42.40
2022-08-26T06:50:42.163Z,41.90
2022-08-26T06:51:19.326Z,42.25
2022-08-26T06:51:56.477Z,42.23
2022-08-26T06:52:28.465Z,42.73
2022-08-26T06:53:01.616Z,42.37
2022-08-26T06:53:33.920Z,41.83
2022-08-26T06:54:08.908Z,41.79
2022-08-26T06:54:43.213Z,41.89
2022-08-26T06:55:16.262Z,41.84
2022-08-26T06:55:51.749Z,42.19
2022-08-26T06:56:26.536Z,42.18
2022-08-26T06:56:59.457Z,42.22
2022-08-26T06:57:32.992Z,42.23
2022-08-26T06:58:10.211Z,41.37
2022-08-26T06:58:42.751Z,41.30
2022-08-26T06:59:16.107Z,40.53
2022-08-26T06:59:48.609Z,40.54
2022-08-26T07:00:23.733Z,40.59
2022-08-26T07:00:59.488Z,40.61
2022-08-26T07:01:39.013Z,39.23
2022-08-26T07:02:15.317Z,39.58
2022-08-26T07:02:49.975Z,39.89
2022-08-26T07:03:22.346Z,39.34
2022-08-26T07:03:57.214Z,40.05
2022-08-26T07:04:29.531Z,40.51
2022-08-26T07:05:01.543Z,39.47
2022-08-26T07:05:34.366Z,38.53
2022-08-26T07:06:07.718Z,38.61
2022-08-26T07:06:41.693Z,38.35
2022-08-26T07:07:15.770Z,38.73
2022-08-26T07:07:48.418Z,38.73
2022-08-26T07:08:22.427Z,39.03
2022-08-26T07:09:01.734Z,38.19
2022-08-26T07:09:37.846Z,37.58
2022-08-26T07:10:10.636Z,37.97
2022-08-26T07:10:43.252Z,37.23
2022-08-26T07:11:15.993Z,37.05
2022-08-26T07:11:49.201Z,37.36
2022-08-26T07:12:21.422Z,37.15
2022-08-26T07:12:54.128Z,37.05
2022-08-26T07:13:30.518Z,36.92
2022-08-26T07:14:03.367Z,37.37
2022-08-26T07:14:35.306Z,37.08
2022-08-26T07:15:07.551Z,36.98
2022-08-26T07:15:42.003Z,37.00
2022-08-26T07:16:16.475Z,36.72
2022-08-26T07:16:49.618Z,36.97
2022-08-26T07:17:21.731Z,37.65
2022-08-26T07:17:57.014Z,36.68
2022-08-26T07:18:28.922Z,36.88
2022-08-26T07:19:03.342Z,37.76
2022-08-26T07:19:35.787Z,37.56
2022-08-26T07:20:08.959Z,36.56
2022-08-26T07:20:40.948Z,37.05
2022-08-26T07:21:18.161Z,36.86
2022-08-26T07:21:50.247Z,36.83
2022-08-26T07:22:22.181Z,37.03
2022-08-26T07:22:56.077Z,37.01
2022-08-26T07:23:28.014Z,37.21
2022-08-26T07:24:01.505Z,37.78